Skip Navigation Links
NOAA logo - Click to go to the NOAA homepage
NOAA's National Weather Service
Alaska Aviation Weather Unit
  NWS logo - Click to go to the NWS homepage
Left Navbar Graphic     23 AKDT = 07 GMT

   
NOAA is celebrating 200 years of science, service, and stewardship. Visit the NOAA 200th celebration Web site to learn more.
USA.gov is the U.S. Government's official Web portal to all Federal, state and local government Web resources and services.
Facebook
NWS on Facebook

AAWU Home :: Display TAF Add Bookmark
TAF PANC 240609Z 2406/2512 17007KT P6SM VCSH BKN060 OVC150
     FM241000 VRB06KT P6SM BKN060
     FM242200 15011G20KT P6SM VCSH BKN060
     FM250900 15007KT P6SM VCSH BKN040=
METAR PANC 240153Z 16009KT 10SM SCT055 BKN075 BKN090 OVC160 11/01
     A2965=

METAR PANC 240253Z 15011G24KT 10SM FEW055 SCT075 BKN090 OVC160 11/01
     A2964=

METAR PANC 240353Z 15012G19KT 10SM FEW060 BKN075 OVC160 11/00 A2964=

METAR PANC 240453Z 15011G27KT 10SM FEW060 BKN070 BKN085 OVC160 09/00
     A2965=

METAR PANC 240553Z 17007KT 10SM FEW055 BKN070 BKN085 OVC160 09/01
     A2965=

METAR PANC 240653Z 15007KT 10SM -RA FEW055 BKN070 BKN085 OVC160 09/02
     A2965=


NOAA's National Weather Service
Alaska Aviation Weather Unit
6930 Sand Lake Road
Anchorage, AK 99502-1845
Disclaimer
Credits
Glossary
Privacy Policy
About Us
Career Opportunities
Contact AAWU Internet Services Site last modified: April, 17th 2012